Αρχική σελίδα
METAR-TAF:

METAR-TAF

Αεροδρόμια :

Πορτ Μόρεσμπι, Παπούα Νέα Γουινέα

γεωγραφικό πλάτος: 09-26S, γεωγραφικό μήκος: 147-13E, υψόμετρο: 38 μ

Παρών καιρός

Η αναφορά έγινε 1 ώρα και 12 λεπτά πριν, στις 01:00 UTC
Άνεμος 10 kt από ΝA
Θερμοκρασία 30°C
Υγρασία 52%
Πίεση 1012 hPa
Ορατότητα 10 χλμ και άνω
Λίγα νέφη σε ύψος 4000 πόδια
καταχνιά,

METAR: AYPY 150100Z 14010KT 9999 HZ FEW040 30/19 Q1012

Χρόνος: 12:12 (02:12 UTC)

Πρόγνωση Καιρού

Η αναφορά έγινε 3 ώρες και 12 λεπτά πριν, στις 23:00 UTC
Η πρόγνωση ισχύει από τις 15 στις 00 UTC έως τις 15 στις 24 UTC
Άνεμος 10 kt από Ν/NA
Ορατότητα 10 χλμ και άνω
Λίγα νέφη σε ύψος 2000 πόδια
Διάσπαρτα νέφη σε ύψος 14000 πόδια
Από 15 στις 0600 UTC
Άνεμος 12 kt από Ν/NA
Ορατότητα 10 χλμ και άνω
Διάσπαρτα νέφη σε ύψος 1800 πόδια
Διάσπαρτα νέφη σε ύψος 14000 πόδια

TAF: AYPY 142300Z 1500/1524 15010KT 9999 FEW020 SCT140 FM150600 16012KT 9999 SCT018 SCT140

Μετεωρολογικές αναφορές και προγνώσεις για περισσότερα από 4000 αεροδρόμια (δελτία METAR και TAF).

Οι διαθέσιμοι σταθμοί απεικονίζονται στο χάρτη με κίτρινες και κόκκινες κουκκίδες.

Μετακινήστε το ποντίκι πάνω από τις κουκκίδες για να δείτε το όνομα του σταθμού.

Στη συνέχεια, κάντε κλικ για να δείτε τις μετεωρολογικές αναφορές και τις προγνώσεις καιρού.

Για να αλλάξετε το χάρτη: κάντε κλικ στα πράσινα κουμπιά με τον μαύρο σταυρό για να ζουμάρετε, στο πράσινο κουμπί με την παύλα για να αφαιρέσετε το ζουμ ή στα πράσινα βέλη για να αντιπαραβάλλετε χάρτες.


METAR-TAF: